Portada
METAR-TAF:

METAR-TAF

Aeroports :

Rodrigues, Maurici

latitud: 19-41S, longitud: 063-25E, altitud: 58 m

Observació

L'informe es va fer fa 37 minuts, a les 09:00 UTC
Vent 15 kt del Est
Temperatura 28°C
Humitat 66%
Pressió 1015 hPa
Visibilitat 10 km o més
Núvols disperses a una alçada de 1800 ft

METAR: FIMR 230900Z 09015KT 9999 SCT018 28/21 Q1015

Hora: 13:37 (09:37 UTC)

Pronòstic

L'informe es va fer fa 4 hores i 12 minuts, a les 05:25 UTC
Pronòstic vàlid del 23 a les 06 UTC al 24 a les 00 UTC
Vent 12 kt del Est/Sud-Est amb ràfegues de 23 kt
Visibilitat 10 km o més
Núvols disperses a una alçada de 1800 ft
Evolucionant progressivament
l' 23 a les 10 UTC al 23 a les 12 UTC
Vent 8 kt del Est

TAF: FIMR 230525Z 2306/2400 11012G23KT 9999 SCT018 BECMG 2310/2312 09008KT

Observacions i pronòstics meteorològics de més de 4000 aeroports (METAR i TAF).

Les estacions disponibles són els punts grocs i vermells al mapa.

Posi el ratolí al punt desitjat per veure el nom de l'estació.

Feu clic per veure les observacions i els pronòstics meteorològics.

Per canviar el mapa: feu clic els botons verds amb una creu de color negre per apropar; al botó verd amb un guió per allunyar la imatge; o en les fletxes verdes per a mapes adjacents.


METAR-TAF: